Time;durP1;ratioP1;P1;durP2;ratioP2;P2;SDS_P1;SDS_P2;PMS_P1;PMS_P2;Temp;Humidity;BMP_temperature;BMP_pressure;BME280_temperature;BME280_humidity;BME280_pressure;Samples;Min_cycle;Max_cycle;Signal;HPM_P1;HPM_P2
2022/11/17 00:00:29;;;;;;;28.98;16.48;;;7.80;99.90;;;;;;5085016;28;20043;-83
2022/11/17 00:02:55;;;;;;;26.88;15.77;;;7.80;99.90;;;;;;5080085;28;20029;-84
2022/11/17 00:05:22;;;;;;;25.98;15.70;;;8.00;99.90;;;;;;5085682;28;20486;-84
2022/11/17 00:07:48;;;;;;;23.48;14.95;;;7.80;99.90;;;;;;5108412;28;20039;-85
2022/11/17 00:10:16;;;;;;;22.92;15.65;;;7.80;99.90;;;;;;5065851;28;20039;-84
2022/11/17 00:16:23;;;;;;;21.23;14.93;;;7.90;99.90;;;;;;5087243;28;20434;-85
2022/11/17 00:21:34;;;;;;;24.20;15.13;;;8.00;99.90;;;;;;5087307;28;20166;-83
2022/11/17 00:24:00;;;;;;;21.33;13.77;;;8.00;99.90;;;;;;5088730;28;20096;-82
2022/11/17 00:26:33;;;;;;;23.50;14.25;;;8.10;99.90;;;;;;5069097;28;20051;-85
2022/11/17 00:29:03;;;;;;;24.30;14.65;;;7.90;99.90;;;;;;5069184;28;20036;-81
2022/11/17 00:34:22;;;;;;;20.02;13.75;;;8.00;99.90;;;;;;5089541;28;20055;-87
2022/11/17 00:36:50;;;;;;;19.65;14.20;;;7.80;99.90;;;;;;5074754;28;20426;-84
2022/11/17 00:39:18;;;;;;;19.15;12.07;;;7.90;99.90;;;;;;5088248;28;20039;-86
2022/11/17 00:41:44;;;;;;;21.38;13.82;;;7.90;99.90;;;;;;5088221;28;20056;-86
2022/11/17 00:44:11;;;;;;;19.23;13.25;;;8.00;99.90;;;;;;5086284;28;20483;-86
2022/11/17 00:46:37;;;;;;;19.90;12.07;;;7.80;99.90;;;;;;5124066;27;20085;-83
2022/11/17 00:49:04;;;;;;;20.63;13.00;;;8.00;99.90;;;;;;5126277;27;20043;-81
2022/11/17 00:51:30;;;;;;;20.98;14.05;;;8.00;99.90;;;;;;5073794;28;20142;-83
2022/11/17 00:53:56;;;;;;;21.20;13.77;;;7.80;99.90;;;;;;5110963;28;20443;-83
2022/11/17 00:56:24;;;;;;;21.48;12.95;;;8.00;99.90;;;;;;5074203;28;20075;-85
2022/11/17 01:02:30;;;;;;;19.65;12.52;;;7.90;99.90;;;;;;5083570;28;20350;-85
2022/11/17 01:04:56;;;;;;;18.48;12.48;;;8.00;99.90;;;;;;5087543;28;20122;-84
2022/11/17 01:07:24;;;;;;;19.15;12.75;;;8.00;99.90;;;;;;5073083;28;20481;-84
2022/11/17 01:09:51;;;;;;;19.52;13.07;;;7.90;99.90;;;;;;5081315;28;20040;-88
2022/11/17 01:12:17;;;;;;;18.98;12.43;;;7.90;99.90;;;;;;5060703;28;20063;-84
2022/11/17 01:14:43;;;;;;;18.35;10.80;;;7.80;99.90;;;;;;5070415;28;20138;-85
2022/11/17 01:17:09;;;;;;;18.42;12.40;;;7.80;99.90;;;;;;5088637;28;20429;-83
2022/11/17 01:19:35;;;;;;;20.83;12.73;;;8.00;99.90;;;;;;5118682;27;20128;-85
2022/11/17 01:22:01;;;;;;;26.90;13.32;;;8.00;99.90;;;;;;5087929;28;20039;-85
2022/11/17 01:24:26;;;;;;;22.27;12.65;;;8.00;99.90;;;;;;5084842;28;20123;-85
2022/11/17 01:26:52;;;;;;;20.95;11.85;;;7.80;99.90;;;;;;5086700;28;20060;-82
2022/11/17 01:29:18;;;;;;;17.40;12.15;;;8.00;99.90;;;;;;5072916;28;20504;-83
2022/11/17 01:31:47;;;;;;;14.02;10.75;;;7.80;99.90;;;;;;5088346;28;20042;-81
2022/11/17 01:34:13;;;;;;;16.73;11.48;;;7.80;99.90;;;;;;5086362;28;20451;-84
2022/11/17 01:39:28;;;;;;;15.50;11.27;;;7.80;99.90;;;;;;5116772;27;20154;-81
2022/11/17 01:41:55;;;;;;;17.42;12.10;;;7.90;99.90;;;;;;5087628;28;20044;-85
2022/11/17 01:44:49;;;;;;;15.80;10.27;;;7.90;99.90;;;;;;5085372;28;20052;-82
2022/11/17 01:47:52;;;;;;;16.27;11.82;;;7.70;99.90;;;;;;5117631;27;20249;-81
2022/11/17 01:50:24;;;;;;;19.10;12.00;;;7.90;99.90;;;;;;5065446;28;20237;-85
2022/11/17 01:52:52;;;;;;;16.75;12.88;;;7.90;99.90;;;;;;5104878;28;20509;-80
2022/11/17 01:55:21;;;;;;;19.25;13.30;;;7.60;99.90;;;;;;5127747;27;20040;-83
2022/11/17 01:57:59;;;;;;;17.85;12.85;;;7.60;99.90;;;;;;5114110;28;20109;-82
2022/11/17 02:00:25;;;;;;;18.65;13.40;;;7.70;99.90;;;;;;5126744;27;20071;-80
2022/11/17 02:02:52;;;;;;;18.88;13.07;;;7.80;99.90;;;;;;5082137;28;20507;-86
2022/11/17 02:05:26;;;;;;;15.75;12.27;;;7.60;99.90;;;;;;5075044;28;20165;-81
2022/11/17 02:07:54;;;;;;;17.23;12.90;;;7.60;99.90;;;;;;5070515;28;20078;-81
2022/11/17 02:10:19;;;;;;;18.70;11.23;;;7.60;99.90;;;;;;5097720;28;20517;-80
2022/11/17 02:12:47;;;;;;;19.02;11.68;;;7.60;99.90;;;;;;5090020;28;20129;-87
2022/11/17 02:15:15;;;;;;;18.08;12.00;;;7.70;99.90;;;;;;5069440;28;20040;-84
2022/11/17 02:17:42;;;;;;;16.60;12.40;;;7.60;99.90;;;;;;5088235;28;20040;-84
2022/11/17 02:20:12;;;;;;;14.98;12.10;;;7.80;99.90;;;;;;5121760;27;20582;-81
2022/11/17 02:23:17;;;;;;;18.05;12.50;;;7.70;99.90;;;;;;5078394;28;20185;-86
2022/11/17 02:26:02;;;;;;;19.45;13.02;;;7.50;99.90;;;;;;5047419;28;20041;-82
2022/11/17 02:28:49;;;;;;;19.55;13.00;;;7.60;99.90;;;;;;5048973;28;20099;-82
2022/11/17 02:31:22;;;;;;;20.13;13.20;;;7.60;99.90;;;;;;5012073;28;20045;-85
2022/11/17 02:33:59;;;;;;;19.33;13.23;;;7.60;99.90;;;;;;5013259;28;20530;-84
2022/11/17 02:36:52;;;;;;;20.73;14.95;;;7.50;99.90;;;;;;5013413;28;20045;-81
2022/11/17 02:39:19;;;;;;;22.52;14.70;;;7.70;99.90;;;;;;5029578;28;20078;-81
2022/11/17 02:41:50;;;;;;;17.38;14.38;;;7.70;99.90;;;;;;5010968;28;20511;-81
2022/11/17 02:44:30;;;;;;;21.65;15.55;;;7.50;99.90;;;;;;5030614;28;20114;-81
2022/11/17 02:47:24;;;;;;;22.85;14.25;;;7.70;99.90;;;;;;5030362;28;20435;-84
2022/11/17 02:49:58;;;;;;;19.08;14.90;;;7.50;99.90;;;;;;4951113;28;20525;-80
2022/11/17 02:52:25;;;;;;;21.85;16.35;;;7.70;99.90;;;;;;4952017;28;20069;-82
2022/11/17 02:54:51;;;;;;;25.52;18.60;;;7.40;99.90;;;;;;4963268;28;20058;-84
2022/11/17 02:57:34;;;;;;;27.55;18.85;;;7.60;99.90;;;;;;4952465;28;20039;-81
2022/11/17 03:00:12;;;;;;;24.00;18.85;;;7.40;99.90;;;;;;4954526;28;20043;-83
2022/11/17 03:03:02;;;;;;;22.45;18.83;;;7.60;99.90;;;;;;4972351;28;20124;-83
2022/11/17 03:05:32;;;;;;;24.27;17.38;;;7.60;99.90;;;;;;5009110;28;20155;-81
2022/11/17 03:08:25;;;;;;;28.20;20.40;;;7.60;99.90;;;;;;5042489;28;20422;-82
2022/11/17 03:11:05;;;;;;;27.77;21.48;;;7.50;99.90;;;;;;5024805;28;20069;-85
2022/11/17 03:13:31;;;;;;;27.35;22.10;;;7.60;99.90;;;;;;5009389;28;20049;-86
2022/11/17 03:16:30;;;;;;;28.17;21.17;;;7.40;99.90;;;;;;4990591;28;20502;-82
2022/11/17 03:19:23;;;;;;;26.85;22.23;;;7.60;99.90;;;;;;5010954;28;20095;-82
2022/11/17 03:21:53;;;;;;;30.50;22.23;;;7.60;99.90;;;;;;5037725;28;20053;-83
2022/11/17 03:24:27;;;;;;;22.27;17.27;;;7.30;99.90;;;;;;5012853;28;20041;-82
2022/11/17 03:26:59;;;;;;;31.98;22.95;;;7.60;99.90;;;;;;5045900;28;20055;-83
2022/11/17 03:29:28;;;;;;;30.83;23.15;;;7.30;99.90;;;;;;5088613;28;20039;-82
2022/11/17 03:31:58;;;;;;;26.90;21.77;;;7.20;99.90;;;;;;5085073;28;20407;-85
2022/11/17 03:34:35;;;;;;;29.73;22.88;;;7.30;99.90;;;;;;5067485;28;21156;-81
2022/11/17 03:37:04;;;;;;;24.98;19.65;;;7.30;99.90;;;;;;5096833;27;20048;-85
2022/11/17 03:39:36;;;;;;;27.48;21.73;;;7.50;99.90;;;;;;5068325;28;20036;-83
2022/11/17 03:45:41;;;;;;;18.08;12.98;;;7.10;99.90;;;;;;5079561;28;20036;-84
2022/11/17 03:48:27;;;;;;;23.25;17.38;;;7.30;99.90;;;;;;5094968;27;20105;-80
2022/11/17 03:51:19;;;;;;;18.48;13.90;;;7.20;99.90;;;;;;5080233;28;20047;-83
2022/11/17 03:53:46;;;;;;;21.02;14.88;;;7.40;99.90;;;;;;5097060;27;20771;-83
2022/11/17 03:56:41;;;;;;;19.02;14.38;;;7.10;99.90;;;;;;5084887;28;20047;-83
2022/11/17 03:59:20;;;;;;;18.75;15.20;;;7.20;99.90;;;;;;5101274;27;20097;-86
2022/11/17 04:01:46;;;;;;;17.20;14.45;;;7.40;99.90;;;;;;5058832;28;20044;-83
2022/11/17 04:04:16;;;;;;;19.10;13.10;;;7.10;99.90;;;;;;5065407;28;20030;-85
2022/11/17 04:06:42;;;;;;;21.73;15.52;;;7.30;99.90;;;;;;5064686;28;20037;-82
2022/11/17 04:09:09;;;;;;;17.02;13.68;;;7.10;99.90;;;;;;5110036;27;20038;-82
2022/11/17 04:17:04;;;;;;;18.13;14.73;;;7.00;99.90;;;;;;5084956;28;20560;-82
2022/11/17 04:19:29;;;;;;;18.63;14.50;;;7.10;99.90;;;;;;5100477;27;20075;-86
2022/11/17 04:21:56;;;;;;;16.75;14.45;;;7.20;99.90;;;;;;5068533;28;20056;-82
2022/11/17 04:24:22;;;;;;;21.42;15.48;;;6.90;99.90;;;;;;5063198;28;20051;-85
2022/11/17 04:29:51;;;;;;;17.48;14.35;;;6.80;99.90;;;;;;5083377;28;20137;-80
2022/11/17 04:32:16;;;;;;;16.30;13.77;;;6.90;99.90;;;;;;5067500;28;20446;-87
2022/11/17 04:34:42;;;;;;;16.92;14.20;;;7.00;99.90;;;;;;5103065;28;20135;-81
2022/11/17 04:37:16;;;;;;;16.70;14.40;;;7.00;99.90;;;;;;5085319;28;20036;-81
2022/11/17 04:39:43;;;;;;;16.50;14.70;;;7.10;99.90;;;;;;5074977;28;20036;-83
2022/11/17 04:42:09;;;;;;;18.35;14.70;;;7.00;99.90;;;;;;5080534;28;20059;-82
2022/11/17 04:44:35;;;;;;;20.80;16.20;;;6.90;99.90;;;;;;5071881;28;20360;-81
2022/11/17 04:47:02;;;;;;;17.33;14.90;;;6.80;99.90;;;;;;5071871;28;20039;-81
2022/11/17 04:49:30;;;;;;;16.20;13.43;;;6.90;99.90;;;;;;5084141;28;20373;-85
2022/11/17 04:51:56;;;;;;;17.77;14.80;;;6.90;99.90;;;;;;5082990;28;20115;-85
2022/11/17 04:54:23;;;;;;;18.15;14.43;;;6.90;99.90;;;;;;5084742;28;20040;-85
2022/11/17 04:56:49;;;;;;;17.35;13.95;;;6.80;99.90;;;;;;5099561;28;20459;-87
2022/11/17 04:59:15;;;;;;;15.68;14.00;;;7.00;99.90;;;;;;5066596;28;20043;-83
2022/11/17 05:01:41;;;;;;;15.57;13.52;;;6.90;99.90;;;;;;5102997;28;20044;-84
2022/11/17 05:04:09;;;;;;;16.80;14.43;;;6.70;99.90;;;;;;5084849;28;20032;-82
2022/11/17 05:06:38;;;;;;;17.02;14.02;;;6.90;99.90;;;;;;5067708;28;20063;-85
2022/11/17 05:09:06;;;;;;;17.35;14.20;;;6.90;99.90;;;;;;5083400;28;20032;-86
2022/11/17 05:14:19;;;;;;;18.13;14.20;;;6.90;99.90;;;;;;5086344;28;20047;-85
2022/11/17 05:19:33;;;;;;;18.38;13.60;;;6.60;99.90;;;;;;5085736;28;20070;-86
2022/11/17 05:21:59;;;;;;;15.63;12.40;;;6.60;99.90;;;;;;5114319;27;20047;-81
2022/11/17 05:24:25;;;;;;;13.20;10.85;;;6.70;99.90;;;;;;5084681;28;20028;-84
2022/11/17 05:26:51;;;;;;;17.40;12.27;;;6.60;99.90;;;;;;5068184;28;20032;-81
2022/11/17 05:29:19;;;;;;;15.07;13.00;;;6.80;99.90;;;;;;5083129;28;20039;-87
2022/11/17 05:31:46;;;;;;;15.88;12.40;;;6.70;99.90;;;;;;5087145;28;20048;-82
2022/11/17 05:34:14;;;;;;;16.52;12.70;;;6.60;99.90;;;;;;5074302;28;20056;-82
2022/11/17 05:36:40;;;;;;;13.73;12.05;;;6.60;99.90;;;;;;5088812;28;20035;-81
2022/11/17 05:39:06;;;;;;;15.82;12.15;;;6.50;99.90;;;;;;5086644;28;20065;-80
2022/11/17 05:41:33;;;;;;;16.27;11.40;;;6.60;99.90;;;;;;5099821;28;20074;-85
2022/11/17 05:43:58;;;;;;;14.93;11.85;;;6.50;99.90;;;;;;5093470;28;20406;-85
2022/11/17 05:46:25;;;;;;;14.65;11.93;;;6.50;99.90;;;;;;5076572;28;20032;-85
2022/11/17 05:48:51;;;;;;;11.80;10.52;;;6.50;99.90;;;;;;5087985;28;20059;-84
2022/11/17 05:51:22;;;;;;;14.65;11.38;;;6.70;99.90;;;;;;5089412;28;20044;-85
2022/11/17 05:53:49;;;;;;;13.82;12.10;;;6.50;99.90;;;;;;5120033;27;20528;-83
2022/11/17 05:56:45;;;;;;;16.00;11.23;;;6.70;99.90;;;;;;5106455;28;20062;-84
2022/11/17 05:59:44;;;;;;;13.15;11.27;;;6.70;99.90;;;;;;5097046;28;20135;-82
2022/11/17 06:02:25;;;;;;;11.82;10.60;;;6.60;99.90;;;;;;5054970;28;20055;-82
2022/11/17 06:04:51;;;;;;;12.57;10.77;;;6.70;99.90;;;;;;5081830;28;20043;-82
2022/11/17 06:07:18;;;;;;;12.38;10.80;;;6.50;99.90;;;;;;5075128;28;20483;-78
2022/11/17 06:09:45;;;;;;;11.90;10.27;;;6.60;99.90;;;;;;5089822;28;20040;-84
2022/11/17 06:12:14;;;;;;;13.43;10.57;;;6.70;99.90;;;;;;5087257;28;20142;-82
2022/11/17 06:14:39;;;;;;;12.30;9.80;;;6.50;99.90;;;;;;5076758;28;20067;-83
2022/11/17 06:17:33;;;;;;;11.57;9.70;;;6.60;99.90;;;;;;5067460;28;20044;-87
2022/11/17 06:20:05;;;;;;;11.27;10.07;;;6.40;99.90;;;;;;5071225;28;20394;-83
2022/11/17 06:22:31;;;;;;;11.05;9.82;;;6.60;99.90;;;;;;5064200;28;20656;-80
2022/11/17 06:24:58;;;;;;;10.95;9.80;;;6.70;99.90;;;;;;5067492;28;20040;-83
2022/11/17 06:27:25;;;;;;;11.48;9.65;;;6.70;99.90;;;;;;5083068;28;20033;-79
2022/11/17 06:29:51;;;;;;;11.95;9.20;;;6.40;99.90;;;;;;5080355;28;20056;-84
2022/11/17 06:32:18;;;;;;;12.32;9.68;;;6.60;99.90;;;;;;5100733;28;20180;-84
2022/11/17 06:34:46;;;;;;;10.65;9.48;;;6.50;99.90;;;;;;5075205;28;20095;-81
2022/11/17 06:37:12;;;;;;;10.45;9.15;;;6.70;99.90;;;;;;5081470;28;20185;-82
2022/11/17 06:39:38;;;;;;;9.82;8.73;;;6.40;99.90;;;;;;5120752;27;20121;-84
2022/11/17 06:42:03;;;;;;;10.02;8.98;;;6.60;99.90;;;;;;5051051;28;20052;-84
2022/11/17 06:44:29;;;;;;;9.55;8.45;;;6.60;99.90;;;;;;5070030;28;20123;-83
2022/11/17 06:46:55;;;;;;;9.70;8.45;;;6.60;99.90;;;;;;5069258;28;20075;-83
2022/11/17 06:49:21;;;;;;;8.90;8.00;;;6.40;99.90;;;;;;5104689;28;20333;-81
2022/11/17 06:51:46;;;;;;;9.43;8.00;;;6.60;99.90;;;;;;5099937;27;20531;-86
2022/11/17 06:54:13;;;;;;;11.68;8.32;;;6.30;99.90;;;;;;5073537;28;20472;-83
2022/11/17 06:56:39;;;;;;;9.88;8.20;;;6.30;99.90;;;;;;5087332;28;20052;-85
2022/11/17 06:59:05;;;;;;;9.23;7.60;;;6.30;99.90;;;;;;5087878;28;20047;-81
2022/11/17 07:01:31;;;;;;;10.30;7.90;;;6.60;99.90;;;;;;5088162;28;20040;-81
2022/11/17 07:03:56;;;;;;;9.32;6.40;;;6.40;99.90;;;;;;5086367;28;20043;-83
2022/11/17 07:06:22;;;;;;;11.98;8.93;;;6.60;99.90;;;;;;5086891;28;20175;-83
2022/11/17 07:08:49;;;;;;;10.57;8.38;;;6.70;99.90;;;;;;5086637;28;20486;-81
2022/11/17 07:11:15;;;;;;;10.63;8.60;;;6.60;99.90;;;;;;5105265;27;20036;-83
2022/11/17 07:13:42;;;;;;;8.75;7.30;;;6.40;99.90;;;;;;5121485;27;20399;-83
2022/11/17 07:16:13;;;;;;;7.60;6.50;;;6.40;99.90;;;;;;5068087;28;20044;-87
2022/11/17 07:18:42;;;;;;;10.05;7.72;;;6.40;99.90;;;;;;5084143;28;20049;-83
2022/11/17 07:21:10;;;;;;;9.73;8.27;;;6.50;99.90;;;;;;5085473;28;20084;-85
2022/11/17 07:23:37;;;;;;;8.93;8.02;;;6.30;99.90;;;;;;5094110;28;20052;-82
2022/11/17 07:26:04;;;;;;;8.88;7.97;;;6.40;99.90;;;;;;5073861;28;20154;-82
2022/11/17 07:28:31;;;;;;;8.63;7.72;;;6.50;99.90;;;;;;5069647;28;20056;-82
2022/11/17 07:31:01;;;;;;;8.88;7.00;;;6.60;99.90;;;;;;5063990;28;20170;-83
2022/11/17 07:33:27;;;;;;;9.57;8.52;;;6.40;99.90;;;;;;5081292;28;20039;-84
2022/11/17 07:35:54;;;;;;;8.27;6.93;;;6.50;99.90;;;;;;5064606;28;20040;-83
2022/11/17 07:38:20;;;;;;;10.02;8.10;;;6.50;99.90;;;;;;5082372;28;20040;-83
2022/11/17 07:40:46;;;;;;;9.25;7.63;;;6.60;99.90;;;;;;5082636;28;20055;-81
2022/11/17 07:43:12;;;;;;;9.68;7.18;;;6.60;99.90;;;;;;5103410;28;20051;-84
2022/11/17 07:45:37;;;;;;;9.27;7.85;;;6.40;99.90;;;;;;5086757;28;20101;-82
2022/11/17 07:48:07;;;;;;;8.50;7.70;;;6.40;99.90;;;;;;5067582;28;20590;-86
2022/11/17 07:50:34;;;;;;;9.55;7.68;;;6.50;99.90;;;;;;5064279;28;20047;-84
2022/11/17 07:52:59;;;;;;;9.57;7.78;;;6.30;99.90;;;;;;5084842;28;20062;-82
2022/11/17 07:55:25;;;;;;;9.73;8.00;;;6.50;99.90;;;;;;5078844;28;20040;-82
2022/11/17 07:57:59;;;;;;;9.15;6.57;;;6.30;99.90;;;;;;5112362;27;20138;-82
2022/11/17 08:00:28;;;;;;;9.30;7.68;;;6.40;99.90;;;;;;5079485;28;20125;-82
2022/11/17 08:02:54;;;;;;;10.32;8.20;;;6.50;99.90;;;;;;5061431;28;20063;-84
2022/11/17 08:05:20;;;;;;;9.85;7.93;;;6.40;99.90;;;;;;5081828;28;20040;-86
2022/11/17 08:07:54;;;;;;;7.72;6.88;;;6.30;99.90;;;;;;5078431;28;20439;-84
2022/11/17 08:10:20;;;;;;;8.13;7.32;;;6.50;99.90;;;;;;5078123;28;20047;-82
2022/11/17 08:12:46;;;;;;;10.07;7.55;;;6.30;99.90;;;;;;5077498;28;20064;-78
2022/11/17 08:15:11;;;;;;;8.40;6.90;;;6.50;99.90;;;;;;5063037;28;20072;-78
2022/11/17 08:17:38;;;;;;;8.80;7.50;;;6.40;99.90;;;;;;5086708;28;20388;-79
2022/11/17 08:20:04;;;;;;;10.77;6.80;;;6.60;99.90;;;;;;5073531;28;20047;-81
2022/11/17 08:22:30;;;;;;;7.97;7.03;;;6.50;99.90;;;;;;5073657;28;20186;-83
2022/11/17 08:24:56;;;;;;;7.65;6.85;;;6.50;99.90;;;;;;5067780;28;20135;-77
2022/11/17 08:27:21;;;;;;;9.45;7.85;;;6.70;99.90;;;;;;5070290;28;20077;-82
2022/11/17 08:29:47;;;;;;;10.00;7.65;;;6.40;99.90;;;;;;5092896;28;20044;-85
2022/11/17 08:32:12;;;;;;;10.02;7.45;;;6.30;99.90;;;;;;5084574;28;20044;-78
2022/11/17 08:34:38;;;;;;;9.88;7.72;;;6.50;99.90;;;;;;5083405;28;20051;-80
2022/11/17 08:37:05;;;;;;;7.75;6.55;;;6.60;99.90;;;;;;5115791;27;20209;-82
2022/11/17 08:39:30;;;;;;;8.88;7.88;;;6.40;99.90;;;;;;5071457;28;20052;-82
2022/11/17 08:41:56;;;;;;;8.82;7.03;;;6.40;99.90;;;;;;5084509;28;20352;-82
2022/11/17 08:44:22;;;;;;;8.90;7.40;;;6.40;99.90;;;;;;5082064;28;22292;-81
2022/11/17 08:46:47;;;;;;;11.73;7.35;;;6.50;99.90;;;;;;5102094;28;20035;-84
2022/11/17 08:49:13;;;;;;;8.90;8.00;;;6.60;99.90;;;;;;5072508;28;20036;-81
2022/11/17 08:51:40;;;;;;;9.82;7.78;;;6.40;99.90;;;;;;5088302;28;20077;-84
2022/11/17 08:54:05;;;;;;;9.98;8.70;;;6.50;99.90;;;;;;5071918;28;20040;-84
2022/11/17 08:56:31;;;;;;;10.48;9.00;;;6.50;99.90;;;;;;5071974;28;20063;-82
2022/11/17 08:58:57;;;;;;;11.35;10.05;;;6.60;99.90;;;;;;5086860;28;20051;-85
2022/11/17 09:01:22;;;;;;;9.82;7.32;;;6.40;99.90;;;;;;5089866;28;20032;-81
2022/11/17 09:03:48;;;;;;;10.38;9.27;;;6.50;99.90;;;;;;5081416;28;20051;-81
2022/11/17 09:06:15;;;;;;;11.50;9.02;;;6.50;99.90;;;;;;5077854;28;20450;-79
2022/11/17 09:08:41;;;;;;;12.02;10.48;;;6.50;99.90;;;;;;5080537;28;20665;-84
2022/11/17 09:11:09;;;;;;;11.63;9.95;;;6.50;99.90;;;;;;5095958;28;20112;-84
2022/11/17 09:13:36;;;;;;;11.05;9.95;;;6.40;99.90;;;;;;5067070;28;20069;-84
2022/11/17 09:16:07;;;;;;;11.93;9.27;;;6.70;99.90;;;;;;5076223;28;20048;-82
2022/11/17 09:18:33;;;;;;;13.50;10.05;;;6.50;99.90;;;;;;5078573;28;20046;-80
2022/11/17 09:21:05;;;;;;;11.43;9.68;;;6.30;99.90;;;;;;5075293;28;20035;-82
2022/11/17 09:23:32;;;;;;;17.60;9.80;;;6.60;99.90;;;;;;5060437;28;20048;-81
2022/11/17 09:26:02;;;;;;;10.55;9.50;;;6.50;99.90;;;;;;5079465;28;20049;-79
2022/11/17 09:28:28;;;;;;;10.75;8.65;;;6.70;99.90;;;;;;5104274;27;20123;-80
2022/11/17 09:30:54;;;;;;;9.65;8.45;;;6.40;99.90;;;;;;5081380;28;20036;-80
2022/11/17 09:33:20;;;;;;;9.95;8.40;;;6.70;99.90;;;;;;5076532;28;20050;-85
2022/11/17 09:35:45;;;;;;;10.45;7.60;;;6.40;99.90;;;;;;5077040;28;20639;-83
2022/11/17 09:38:11;;;;;;;10.40;7.70;;;6.50;99.90;;;;;;5061329;28;20463;-86
2022/11/17 09:40:41;;;;;;;8.55;7.60;;;6.60;99.90;;;;;;5077763;28;20048;-83
2022/11/17 09:43:28;;;;;;;9.10;8.05;;;6.60;99.90;;;;;;5077501;28;20051;-83
2022/11/17 09:46:08;;;;;;;12.02;8.32;;;6.40;99.90;;;;;;5065140;28;20056;-83
2022/11/17 09:49:23;;;;;;;9.63;7.40;;;6.70;99.90;;;;;;5112150;28;20631;-82
2022/11/17 09:51:49;;;;;;;11.15;8.00;;;6.40;99.90;;;;;;5082153;28;20063;-83
2022/11/17 09:54:29;;;;;;;12.48;7.70;;;6.70;99.90;;;;;;5057822;28;20144;-84
2022/11/17 09:56:57;;;;;;;9.40;6.40;;;6.30;99.90;;;;;;5070386;28;20052;-82
2022/11/17 09:59:26;;;;;;;9.55;7.45;;;6.30;99.90;;;;;;5075739;28;20463;-84
2022/11/17 10:01:52;;;;;;;11.30;7.95;;;6.50;99.90;;;;;;5064036;28;20082;-84
2022/11/17 10:04:18;;;;;;;10.10;8.00;;;6.40;99.90;;;;;;5083468;28;20188;-84
2022/11/17 10:06:48;;;;;;;8.25;7.45;;;6.40;99.90;;;;;;5068202;28;20044;-82
2022/11/17 10:09:28;;;;;;;7.95;7.15;;;6.30;99.90;;;;;;5080127;28;20048;-83
2022/11/17 10:12:13;;;;;;;8.32;6.90;;;6.50;99.90;;;;;;5066320;28;20048;-80
2022/11/17 10:14:40;;;;;;;8.10;7.30;;;6.50;99.90;;;;;;5084478;28;20094;-81
2022/11/17 10:17:05;;;;;;;11.10;7.53;;;6.40;99.90;;;;;;5066179;28;20139;-82
2022/11/17 10:19:35;;;;;;;8.85;7.80;;;6.40;99.90;;;;;;5099100;28;20442;-81
2022/11/17 10:22:01;;;;;;;10.48;8.00;;;6.60;99.90;;;;;;5061872;28;20052;-81
2022/11/17 10:24:43;;;;;;;10.77;8.32;;;6.60;99.90;;;;;;5075478;28;20036;-84
2022/11/17 10:27:32;;;;;;;9.35;7.90;;;6.50;99.90;;;;;;5073872;28;20063;-84
2022/11/17 10:30:06;;;;;;;8.45;7.43;;;6.50;99.90;;;;;;5080753;28;20351;-82
2022/11/17 10:32:45;;;;;;;9.15;8.18;;;6.50;99.90;;;;;;5070787;28;20506;-82
2022/11/17 10:35:17;;;;;;;7.85;7.03;;;6.80;99.90;;;;;;5118534;27;20043;-82
2022/11/17 10:38:07;;;;;;;8.15;7.35;;;6.60;99.90;;;;;;5087309;28;20124;-83
2022/11/17 10:40:39;;;;;;;9.00;7.13;;;6.50;99.90;;;;;;5088371;27;20051;-84
2022/11/17 10:43:10;;;;;;;8.75;7.38;;;6.70;99.90;;;;;;5089522;28;20066;-83
2022/11/17 10:45:47;;;;;;;7.10;6.40;;;6.70;99.90;;;;;;5095021;28;20397;-81
2022/11/17 10:48:19;;;;;;;7.93;7.13;;;6.70;99.90;;;;;;5074389;28;20366;-80
2022/11/17 10:50:54;;;;;;;10.63;7.55;;;6.80;99.90;;;;;;5086390;28;20043;-77
2022/11/17 10:53:24;;;;;;;9.27;7.35;;;6.50;99.90;;;;;;5093783;28;20045;-79
2022/11/17 10:56:10;;;;;;;7.82;7.03;;;6.60;99.90;;;;;;5068570;28;20086;-82
2022/11/17 10:58:59;;;;;;;7.75;6.95;;;6.70;99.90;;;;;;5086300;28;20036;-84
2022/11/17 11:01:31;;;;;;;9.10;6.97;;;6.50;99.90;;;;;;5068012;28;20059;-79
2022/11/17 11:03:57;;;;;;;8.35;6.75;;;6.70;99.90;;;;;;5090503;28;20037;-81
2022/11/17 11:06:26;;;;;;;7.95;7.15;;;6.70;99.90;;;;;;5102353;28;20040;-79
2022/11/17 11:09:03;;;;;;;7.97;7.18;;;6.40;99.90;;;;;;5085061;28;20040;-81
2022/11/17 11:11:35;;;;;;;8.25;7.32;;;6.40;99.90;;;;;;5092962;28;20063;-80
2022/11/17 11:14:15;;;;;;;8.30;7.43;;;6.60;99.90;;;;;;5120848;27;20055;-81
2022/11/17 11:16:45;;;;;;;9.25;7.05;;;6.40;99.90;;;;;;5103731;28;20074;-82
2022/11/17 11:19:13;;;;;;;8.82;7.47;;;6.60;99.90;;;;;;5089286;28;20044;-80
2022/11/17 11:22:30;;;;;;;10.27;8.13;;;6.50;99.90;;;;;;5097769;27;20048;-81
2022/11/17 11:25:12;;;;;;;9.88;7.65;;;6.40;99.90;;;;;;5011322;28;20474;-83
2022/11/17 11:27:50;;;;;;;8.25;7.38;;;6.40;99.90;;;;;;5013144;28;20067;-86
2022/11/17 11:30:18;;;;;;;8.70;7.22;;;6.60;99.90;;;;;;5022719;28;21005;-84
2022/11/17 11:32:59;;;;;;;7.47;6.78;;;6.60;99.90;;;;;;5035933;28;20142;-81
2022/11/17 11:36:04;;;;;;;7.93;7.05;;;6.70;99.90;;;;;;5022426;28;20156;-83
2022/11/17 11:38:38;;;;;;;9.52;8.13;;;6.50;99.90;;;;;;4946043;28;20186;-86
2022/11/17 11:41:19;;;;;;;8.85;8.00;;;6.70;99.90;;;;;;4964145;28;20050;-84
2022/11/17 11:44:26;;;;;;;10.27;8.68;;;6.80;99.90;;;;;;4948437;28;20059;-84
2022/11/17 11:47:13;;;;;;;13.68;8.93;;;6.50;99.90;;;;;;4908706;29;21006;-80
2022/11/17 11:49:48;;;;;;;10.57;9.45;;;6.50;99.90;;;;;;4890604;29;20365;-81
2022/11/17 11:52:19;;;;;;;10.55;9.07;;;6.40;99.90;;;;;;4893208;29;20056;-84
2022/11/17 11:55:25;;;;;;;10.70;8.85;;;6.70;99.90;;;;;;4894687;29;20119;-82
2022/11/17 11:58:19;;;;;;;12.10;9.40;;;6.70;99.90;;;;;;4898925;29;20135;-80
2022/11/17 12:00:53;;;;;;;12.53;8.53;;;6.50;99.90;;;;;;4909541;29;20193;-79
2022/11/17 12:03:29;;;;;;;11.45;9.35;;;6.60;99.90;;;;;;4942895;28;20130;-84
2022/11/17 12:06:39;;;;;;;10.70;9.60;;;6.80;99.90;;;;;;4958091;28;20058;-84
2022/11/17 12:09:02;;;;;;;11.23;10.00;;;6.90;99.90;;;;;;4962272;28;20795;-83
2022/11/17 12:14:17;;;;;;;10.77;8.70;;;6.70;99.90;;;;;;4962316;28;20518;-82
2022/11/17 12:16:45;;;;;;;10.25;9.15;;;6.60;99.90;;;;;;5000319;28;20054;-81
2022/11/17 12:19:52;;;;;;;11.60;8.95;;;6.70;99.90;;;;;;5017199;28;20041;-79
2022/11/17 12:22:44;;;;;;;13.90;8.30;;;6.90;99.90;;;;;;4972254;28;20061;-81
2022/11/17 12:25:33;;;;;;;10.73;8.32;;;6.70;99.90;;;;;;5071110;28;20340;-83
2022/11/17 12:28:26;;;;;;;9.68;8.68;;;6.70;99.90;;;;;;5091692;28;20028;-84
2022/11/17 12:30:55;;;;;;;11.88;8.95;;;6.60;99.90;;;;;;5119432;27;20051;-83
2022/11/17 12:33:41;;;;;;;9.50;8.25;;;6.70;99.90;;;;;;5090721;28;20067;-81
2022/11/17 12:36:32;;;;;;;9.65;8.07;;;6.90;99.90;;;;;;5074915;28;20044;-83
2022/11/17 12:39:00;;;;;;;9.52;8.10;;;6.70;99.90;;;;;;5102323;28;20040;-81
2022/11/17 12:41:48;;;;;;;9.48;7.65;;;6.70;99.90;;;;;;5093635;28;20359;-80
2022/11/17 12:44:51;;;;;;;9.35;8.25;;;6.90;99.90;;;;;;5120204;27;20071;-83
2022/11/17 12:47:20;;;;;;;9.57;8.57;;;6.80;99.90;;;;;;5103070;27;20044;-82
2022/11/17 12:50:17;;;;;;;9.57;8.32;;;7.00;99.90;;;;;;5100193;28;20052;-83
2022/11/17 12:53:13;;;;;;;10.23;8.57;;;6.70;99.90;;;;;;5081757;28;20078;-86
2022/11/17 12:56:01;;;;;;;10.45;9.30;;;6.70;99.90;;;;;;5080682;28;20089;-80
2022/11/17 12:58:45;;;;;;;9.43;8.45;;;6.70;99.90;;;;;;5081299;28;20091;-82
2022/11/17 13:01:33;;;;;;;11.23;8.75;;;6.80;99.90;;;;;;5110188;27;20036;-82
2022/11/17 13:04:11;;;;;;;11.23;8.50;;;6.70;99.90;;;;;;5061201;28;20052;-83
2022/11/17 13:06:37;;;;;;;11.32;9.35;;;6.80;99.90;;;;;;5067199;28;20126;-81
2022/11/17 13:09:10;;;;;;;10.93;8.85;;;7.00;99.90;;;;;;5079421;28;20185;-82
2022/11/17 13:11:36;;;;;;;10.38;8.80;;;6.80;99.90;;;;;;5082205;28;20063;-85
2022/11/17 13:14:15;;;;;;;13.27;9.75;;;6.70;99.90;;;;;;5079109;28;20036;-81
2022/11/17 13:16:48;;;;;;;12.15;9.55;;;6.90;99.90;;;;;;5064929;28;20056;-82
2022/11/17 13:19:33;;;;;;;11.70;9.50;;;7.00;99.90;;;;;;5097755;27;20839;-81
2022/11/17 13:22:15;;;;;;;10.20;8.13;;;7.00;99.90;;;;;;5058975;28;20052;-83
2022/11/17 13:24:45;;;;;;;8.60;7.63;;;7.10;99.90;;;;;;5065545;28;20146;-84
2022/11/17 13:27:27;;;;;;;9.02;7.95;;;7.00;99.90;;;;;;5115000;27;20131;-80
2022/11/17 13:30:14;;;;;;;8.52;6.90;;;7.10;99.90;;;;;;5092961;28;20063;-83
2022/11/17 13:32:41;;;;;;;8.07;7.30;;;7.10;99.90;;;;;;5086752;28;20060;-84
2022/11/17 13:35:21;;;;;;;8.50;7.60;;;6.80;99.90;;;;;;5070269;28;20054;-84
2022/11/17 13:38:14;;;;;;;10.15;7.28;;;6.80;99.90;;;;;;5117629;27;20565;-83
2022/11/17 13:40:42;;;;;;;9.65;7.32;;;7.10;99.90;;;;;;5085431;28;20162;-84
2022/11/17 13:43:11;;;;;;;9.95;8.18;;;7.00;99.90;;;;;;5062398;28;20173;-84
2022/11/17 13:45:37;;;;;;;10.10;8.32;;;7.20;99.90;;;;;;5080621;28;20111;-85
2022/11/17 13:48:03;;;;;;;9.63;8.20;;;7.20;99.90;;;;;;5078283;28;20475;-83